• Join FlightAware (Why Join?)
  • Login
  • US Flag 
 
06:06AM EST


 

Airport Tracker/Info


-or-


 

Live Flight TrackerFlight Track Log ✈ UPS2977 ✈ 04-Mar-2014 ✈ KPDX - KGEG

Flight Track Log - Related Links

Times and Time Zones

All times are in EST time to prevent confusion due to time zone crossing. See the UPS2977 flight status page for this flight to view local times or setup timezone preferences in your user account.

Time Position Orientation Groundspeed Altitude Reporting Facility
EST Latitude Longitude Course Direction KTS MPH feet Rate Location/Type
08:39AM 45.5712 -122.4779 100° East 268 308 4,700  Level FlightAware ADS-B
08:40AM 45.5671 -122.4267 78° East 280 322 5,700 2,340 Climbing FlightAware ADS-B
08:40AM 45.5712 -122.4073 50° Northeast 288 331 6,300 3,420 Climbing FlightAware ADS-B
08:41AM 45.5979 -122.3594 49° Northeast 298 343 8,100 3,360 Climbing FlightAware ADS-B
08:41AM 45.6162 -122.3294 49° Northeast 307 353 9,200 2,760 Climbing FlightAware ADS-B
08:42AM 45.6534 -122.2688 54° Northeast 344 396 10,900 1,980 Climbing FlightAware ADS-B
08:42AM 45.6931 -122.1792 56° Northeast 399 459 11,900 1,980 Climbing FlightAware ADS-B
08:43AM 45.7262 -122.1100 56° Northeast 415 478 13,300 3,000 Climbing FlightAware ADS-B
08:43AM 45.7310 -122.1006 56° Northeast 419 482 13,800 3,000 Climbing FlightAware ADS-B
08:43AM 45.7637 -122.0310 56° Northeast 422 486 15,000 2,640 Climbing FlightAware ADS-B
08:44AM 45.7981 -121.9590 56° Northeast 433 498 16,400 2,580 Climbing FlightAware ADS-B
08:44AM 45.8336 -121.8840 56° Northeast 441 507 17,700 2,520 Climbing FlightAware ADS-B
08:45AM 45.8688 -121.8100 56° Northeast 452 520 19,000 2,520 Climbing FlightAware ADS-B
08:45AM 45.8970 -121.7502 56° Northeast 457 526 20,000 2,460 Climbing FlightAware ADS-B
08:45AM 45.9059 -121.7330 56° Northeast 459 528 20,300 2,340 Climbing FlightAware ADS-B
08:46AM 45.9422 -121.6570 56° Northeast 465 535 21,500 2,220 Climbing FlightAware ADS-B
08:47AM 45.9832 -121.5690 56° Northeast 473 544 22,700 1,860 Climbing FlightAware ADS-B
08:47AM 46.0443 -121.4380 56° Northeast 483 556 24,100 2,220 Climbing FlightAware ADS-B
08:48AM 46.0817 -121.3580 56° Northeast 483 556 25,700 2,460 Climbing FlightAware ADS-B
08:49AM 46.1337 -121.2450 56° Northeast 486 559 27,100 1,740 Climbing FlightAware ADS-B
08:49AM 46.2037 -121.0950 56° Northeast 505 581 28,500 1,200 Climbing FlightAware ADS-B
08:50AM 46.2565 -120.9810 56° Northeast 501 577 29,000 360 Climbing FlightAware ADS-B
08:51AM 46.2953 -120.8960 56° Northeast 497 572 29,000  Level FlightAware ADS-B
08:52AM 46.3698 -120.7330 56° Northeast 494 568 29,000  Level FlightAware ADS-B
08:53AM 46.4612 -120.5300 57° Northeast 494 568 29,000  Level FlightAware ADS-B
08:54AM 46.5116 -120.4190 57° Northeast 495 570 29,000  Level FlightAware ADS-B
08:54AM 46.5506 -120.3340 57° Northeast 504 580 29,000  Level FlightAware ADS-B
08:55AM 46.5985 -120.2260 57° Northeast 503 579 29,000  Level FlightAware ADS-B
08:56AM 46.6645 -120.0780 57° Northeast 488 562 29,000  Level FlightAware ADS-B
08:56AM 46.7058 -119.9840 57° Northeast 487 560 29,000 -60 Level FlightAware ADS-B
08:58AM 46.7975 -119.7739 57° Northeast 495 570 28,900 -60 Descending Seattle Center
08:59AM 46.8719 -119.6000 58° Northeast 505 581 28,900 -240 Level Seattle Center
09:00AM 46.9478 -119.4275 57° Northeast 507 583 28,500 -900 Descending Seattle Center
09:01AM 47.0225 -119.2522 58° Northeast 508 585 27,200 -1,740 Descending Seattle Center
09:02AM 47.0961 -119.0803 58° Northeast 503 579 25,100 -2,340 Descending Seattle Center
09:03AM 47.1667 -118.9167 58° Northeast 482 555 22,500 -2,640 Descending Seattle Center
09:04AM 47.2344 -118.7569 58° Northeast 466 536 19,900 -2,700 Descending Seattle Center
09:05AM 47.3144 -118.5733 57° Northeast 454 522 17,100 -2,580 Descending Seattle Center
09:06AM 47.3750 -118.4258 59° Northeast 426 490 14,800 -2,460 Descending Seattle Center
09:07AM 47.4292 -118.2764 62° Northeast 415 478 12,200 -1,800 Descending Seattle Center
09:08AM 47.4764 -118.1336 64° Northeast 391 450 11,200 -900 Descending Seattle Center
09:09AM 47.5158 -118.0083 65° Northeast 340 391 10,500 -960 Descending Seattle Center
09:10AM 47.5522 -117.8933 65° Northeast 312 359 9,300 -1,320 Descending Seattle Center
09:11AM 47.5894 -117.7800 64° Northeast 307 353 7,900 -1,140 Descending Seattle Center
09:12AM 47.6397 -117.6853 52° Northeast 293 337 7,100 -420 Descending Seattle Center
09:13AM 47.6969 -117.6011 45° Northeast 288 331 7,100 -360 Level Seattle Center
09:14AM 47.7553 -117.5178 44° Northeast 289 333 6,400 -960 Descending Seattle Center
09:15AM 47.8103 -117.4344 45° Northeast 282 325 5,200 -840 Descending Seattle Center
09:16AM 47.7797 -117.3644 123° Southeast 218 251 4,800 -600 Descending Seattle Center
09:17AM 47.7358 -117.3619 178° South 178 205 4,100 -360 Descending Seattle Center
09:18AM 47.7039 -117.4100 225° Southwest 166 191 4,100 -240 Level Seattle Center
09:19AM 47.6753 -117.4531 225° Southwest 150 173 3,700 -600 Descending Seattle Center
09:20AM 47.6531 -117.4861 225° Southwest 120 138 3,000 -720 Descending Seattle Center
09:21AM 47.6281 -117.5242 226° Southwest 126 145 2,300 -300 Descending Seattle Center
09:22AM 47.6175 -117.5386 223° Southwest 82 94 2,400 60 Climbing Seattle Center